sensor_id;sensor_type;location;lat;lon;timestamp;temperature;humidity
21163;DHT22;10739;52.198;20.908;2023-09-12T00:00:02;18.40;99.90
21163;DHT22;10739;52.198;20.908;2023-09-12T00:02:31;18.30;99.90
21163;DHT22;10739;52.198;20.908;2023-09-12T00:04:57;18.40;99.90
21163;DHT22;10739;52.198;20.908;2023-09-12T00:07:23;18.40;99.90
21163;DHT22;10739;52.198;20.908;2023-09-12T00:09:49;18.30;99.90
21163;DHT22;10739;52.198;20.908;2023-09-12T00:12:16;18.30;99.90
21163;DHT22;10739;52.198;20.908;2023-09-12T00:14:42;18.20;99.90
21163;DHT22;10739;52.198;20.908;2023-09-12T00:17:09;18.10;99.90
21163;DHT22;10739;52.198;20.908;2023-09-12T00:19:35;18.10;99.90
21163;DHT22;10739;52.198;20.908;2023-09-12T00:22:01;18.00;99.90
21163;DHT22;10739;52.198;20.908;2023-09-12T00:24:29;18.00;99.90
21163;DHT22;10739;52.198;20.908;2023-09-12T00:26:55;18.00;99.90
21163;DHT22;10739;52.198;20.908;2023-09-12T00:29:21;18.00;99.90
21163;DHT22;10739;52.198;20.908;2023-09-12T00:31:48;18.00;99.90
21163;DHT22;10739;52.198;20.908;2023-09-12T00:34:17;18.00;99.90
21163;DHT22;10739;52.198;20.908;2023-09-12T00:36:43;18.00;99.90
21163;DHT22;10739;52.198;20.908;2023-09-12T00:39:10;18.00;99.90
21163;DHT22;10739;52.198;20.908;2023-09-12T00:41:36;18.00;99.90
21163;DHT22;10739;52.198;20.908;2023-09-12T00:44:02;18.00;99.90
21163;DHT22;10739;52.198;20.908;2023-09-12T00:46:28;18.00;99.90
21163;DHT22;10739;52.198;20.908;2023-09-12T00:48:57;17.90;99.90
21163;DHT22;10739;52.198;20.908;2023-09-12T00:51:26;17.90;99.90
21163;DHT22;10739;52.198;20.908;2023-09-12T00:53:52;17.90;99.90
21163;DHT22;10739;52.198;20.908;2023-09-12T00:56:20;17.90;99.90
21163;DHT22;10739;52.198;20.908;2023-09-12T00:58:46;17.90;99.90
21163;DHT22;10739;52.198;20.908;2023-09-12T01:01:13;17.90;99.90
21163;DHT22;10739;52.198;20.908;2023-09-12T01:03:39;18.10;99.90
21163;DHT22;10739;52.198;20.908;2023-09-12T01:06:06;18.40;99.90
21163;DHT22;10739;52.198;20.908;2023-09-12T01:08:35;18.70;99.90
21163;DHT22;10739;52.198;20.908;2023-09-12T01:11:03;18.70;99.90
21163;DHT22;10739;52.198;20.908;2023-09-12T01:13:30;18.70;99.90
21163;DHT22;10739;52.198;20.908;2023-09-12T01:15:56;18.60;99.90
21163;DHT22;10739;52.198;20.908;2023-09-12T01:18:22;18.40;99.90
21163;DHT22;10739;52.198;20.908;2023-09-12T01:29:53;18.60;99.90
21163;DHT22;10739;52.198;20.908;2023-09-12T01:32:22;18.70;99.90
21163;DHT22;10739;52.198;20.908;2023-09-12T01:34:48;18.80;99.90
21163;DHT22;10739;52.198;20.908;2023-09-12T01:37:15;18.80;99.90
21163;DHT22;10739;52.198;20.908;2023-09-12T01:39:42;18.90;99.90
21163;DHT22;10739;52.198;20.908;2023-09-12T01:42:11;18.90;99.90
21163;DHT22;10739;52.198;20.908;2023-09-12T01:44:42;18.90;99.90
21163;DHT22;10739;52.198;20.908;2023-09-12T01:47:11;18.90;99.90
21163;DHT22;10739;52.198;20.908;2023-09-12T01:49:43;18.90;99.90
21163;DHT22;10739;52.198;20.908;2023-09-12T01:52:13;18.80;99.90
21163;DHT22;10739;52.198;20.908;2023-09-12T01:54:41;18.70;99.90
21163;DHT22;10739;52.198;20.908;2023-09-12T01:57:08;18.60;99.90
21163;DHT22;10739;52.198;20.908;2023-09-12T01:59:36;18.50;99.90
21163;DHT22;10739;52.198;20.908;2023-09-12T02:02:03;18.40;99.90
21163;DHT22;10739;52.198;20.908;2023-09-12T02:04:29;18.30;99.90
21163;DHT22;10739;52.198;20.908;2023-09-12T02:06:55;18.30;99.90
21163;DHT22;10739;52.198;20.908;2023-09-12T02:09:21;18.10;99.90
21163;DHT22;10739;52.198;20.908;2023-09-12T02:11:49;18.00;99.90
21163;DHT22;10739;52.198;20.908;2023-09-12T02:14:16;18.00;99.90
21163;DHT22;10739;52.198;20.908;2023-09-12T02:16:44;17.90;99.90
21163;DHT22;10739;52.198;20.908;2023-09-12T02:19:10;17.80;99.90
21163;DHT22;10739;52.198;20.908;2023-09-12T02:21:36;17.80;99.90
21163;DHT22;10739;52.198;20.908;2023-09-12T02:24:03;17.70;99.90
21163;DHT22;10739;52.198;20.908;2023-09-12T02:26:29;17.70;99.90
21163;DHT22;10739;52.198;20.908;2023-09-12T02:28:55;17.60;99.90
21163;DHT22;10739;52.198;20.908;2023-09-12T02:31:22;17.50;99.90
21163;DHT22;10739;52.198;20.908;2023-09-12T02:33:48;17.40;99.90
21163;DHT22;10739;52.198;20.908;2023-09-12T02:36:14;17.40;99.90
21163;DHT22;10739;52.198;20.908;2023-09-12T02:38:40;17.40;99.90
21163;DHT22;10739;52.198;20.908;2023-09-12T02:41:06;17.40;99.90
21163;DHT22;10739;52.198;20.908;2023-09-12T02:43:33;17.30;99.90
21163;DHT22;10739;52.198;20.908;2023-09-12T02:45:59;17.40;99.90
21163;DHT22;10739;52.198;20.908;2023-09-12T02:48:25;17.40;99.90
21163;DHT22;10739;52.198;20.908;2023-09-12T02:50:52;17.40;99.90
21163;DHT22;10739;52.198;20.908;2023-09-12T02:53:19;17.30;99.90
21163;DHT22;10739;52.198;20.908;2023-09-12T02:55:45;17.30;99.90
21163;DHT22;10739;52.198;20.908;2023-09-12T02:58:11;17.20;99.90
21163;DHT22;10739;52.198;20.908;2023-09-12T03:00:39;17.20;99.90
21163;DHT22;10739;52.198;20.908;2023-09-12T03:03:06;17.20;99.90
21163;DHT22;10739;52.198;20.908;2023-09-12T03:05:35;17.20;99.90
21163;DHT22;10739;52.198;20.908;2023-09-12T03:08:01;17.20;99.90
21163;DHT22;10739;52.198;20.908;2023-09-12T03:10:29;17.10;99.90
21163;DHT22;10739;52.198;20.908;2023-09-12T03:12:55;17.10;99.90
21163;DHT22;10739;52.198;20.908;2023-09-12T03:15:21;17.10;99.90
21163;DHT22;10739;52.198;20.908;2023-09-12T03:17:48;17.10;99.90
21163;DHT22;10739;52.198;20.908;2023-09-12T03:20:14;17.00;99.90
21163;DHT22;10739;52.198;20.908;2023-09-12T03:22:40;17.00;99.90
21163;DHT22;10739;52.198;20.908;2023-09-12T03:25:06;17.00;99.90
21163;DHT22;10739;52.198;20.908;2023-09-12T03:27:33;17.00;99.90
21163;DHT22;10739;52.198;20.908;2023-09-12T03:29:59;17.00;99.90
21163;DHT22;10739;52.198;20.908;2023-09-12T03:32:25;17.00;99.90
21163;DHT22;10739;52.198;20.908;2023-09-12T03:34:52;17.10;99.90
21163;DHT22;10739;52.198;20.908;2023-09-12T03:37:18;17.10;99.90
21163;DHT22;10739;52.198;20.908;2023-09-12T03:39:44;17.00;99.90
21163;DHT22;10739;52.198;20.908;2023-09-12T03:42:10;17.00;99.90
21163;DHT22;10739;52.198;20.908;2023-09-12T03:44:36;17.00;99.90
21163;DHT22;10739;52.198;20.908;2023-09-12T03:47:02;17.00;99.90
21163;DHT22;10739;52.198;20.908;2023-09-12T03:49:28;17.00;99.90
21163;DHT22;10739;52.198;20.908;2023-09-12T03:51:54;17.00;99.90
21163;DHT22;10739;52.198;20.908;2023-09-12T03:54:21;17.00;99.90
21163;DHT22;10739;52.198;20.908;2023-09-12T03:56:47;17.00;99.90
21163;DHT22;10739;52.198;20.908;2023-09-12T03:59:13;17.00;99.90
21163;DHT22;10739;52.198;20.908;2023-09-12T04:01:39;17.00;99.90
21163;DHT22;10739;52.198;20.908;2023-09-12T04:04:05;17.00;99.90
21163;DHT22;10739;52.198;20.908;2023-09-12T04:06:32;17.00;99.90
21163;DHT22;10739;52.198;20.908;2023-09-12T04:08:58;17.00;99.90
21163;DHT22;10739;52.198;20.908;2023-09-12T04:11:24;17.00;99.90
21163;DHT22;10739;52.198;20.908;2023-09-12T04:13:50;16.90;99.90
21163;DHT22;10739;52.198;20.908;2023-09-12T04:16:16;16.90;99.90
21163;DHT22;10739;52.198;20.908;2023-09-12T04:18:44;16.90;99.90
21163;DHT22;10739;52.198;20.908;2023-09-12T04:21:11;16.90;99.90
21163;DHT22;10739;52.198;20.908;2023-09-12T04:23:38;16.90;99.90
21163;DHT22;10739;52.198;20.908;2023-09-12T04:26:05;16.90;99.90
21163;DHT22;10739;52.198;20.908;2023-09-12T04:28:32;16.90;99.90
21163;DHT22;10739;52.198;20.908;2023-09-12T04:31:02;16.90;99.90
21163;DHT22;10739;52.198;20.908;2023-09-12T04:33:29;16.90;99.90
21163;DHT22;10739;52.198;20.908;2023-09-12T04:35:58;16.90;99.90
21163;DHT22;10739;52.198;20.908;2023-09-12T04:38:26;16.90;99.90
21163;DHT22;10739;52.198;20.908;2023-09-12T04:40:57;17.00;99.90
21163;DHT22;10739;52.198;20.908;2023-09-12T04:43:28;17.20;99.90
21163;DHT22;10739;52.198;20.908;2023-09-12T04:45:55;17.20;99.90
21163;DHT22;10739;52.198;20.908;2023-09-12T04:48:22;17.20;99.90
21163;DHT22;10739;52.198;20.908;2023-09-12T04:50:48;17.30;99.90
21163;DHT22;10739;52.198;20.908;2023-09-12T04:53:16;17.30;99.90
21163;DHT22;10739;52.198;20.908;2023-09-12T04:55:42;17.30;99.90
21163;DHT22;10739;52.198;20.908;2023-09-12T04:58:08;17.30;99.90
21163;DHT22;10739;52.198;20.908;2023-09-12T05:00:35;17.30;99.90
21163;DHT22;10739;52.198;20.908;2023-09-12T05:03:02;17.40;99.90
21163;DHT22;10739;52.198;20.908;2023-09-12T05:05:29;17.50;99.90
21163;DHT22;10739;52.198;20.908;2023-09-12T05:07:56;17.50;99.90
21163;DHT22;10739;52.198;20.908;2023-09-12T05:10:22;17.50;99.90
21163;DHT22;10739;52.198;20.908;2023-09-12T05:12:48;17.60;99.90
21163;DHT22;10739;52.198;20.908;2023-09-12T05:15:14;17.60;99.90
21163;DHT22;10739;52.198;20.908;2023-09-12T05:17:41;17.70;99.90
21163;DHT22;10739;52.198;20.908;2023-09-12T05:20:07;17.80;99.90
21163;DHT22;10739;52.198;20.908;2023-09-12T05:22:34;17.90;99.90
21163;DHT22;10739;52.198;20.908;2023-09-12T05:25:00;18.00;99.90
21163;DHT22;10739;52.198;20.908;2023-09-12T05:27:25;18.10;99.90
21163;DHT22;10739;52.198;20.908;2023-09-12T05:29:51;18.20;99.90
21163;DHT22;10739;52.198;20.908;2023-09-12T05:32:18;18.20;99.90
21163;DHT22;10739;52.198;20.908;2023-09-12T05:34:44;18.30;99.90
21163;DHT22;10739;52.198;20.908;2023-09-12T05:37:11;18.40;99.90
21163;DHT22;10739;52.198;20.908;2023-09-12T05:39:37;18.50;99.90
21163;DHT22;10739;52.198;20.908;2023-09-12T05:42:03;18.50;99.90
21163;DHT22;10739;52.198;20.908;2023-09-12T05:44:29;18.60;99.90
21163;DHT22;10739;52.198;20.908;2023-09-12T05:46:56;18.70;99.90
21163;DHT22;10739;52.198;20.908;2023-09-12T05:49:22;18.80;99.90
21163;DHT22;10739;52.198;20.908;2023-09-12T05:51:48;18.90;99.90
21163;DHT22;10739;52.198;20.908;2023-09-12T05:54:15;19.00;99.90
21163;DHT22;10739;52.198;20.908;2023-09-12T05:56:41;19.10;99.90
21163;DHT22;10739;52.198;20.908;2023-09-12T05:59:07;19.20;99.90
21163;DHT22;10739;52.198;20.908;2023-09-12T06:01:34;19.30;99.90
21163;DHT22;10739;52.198;20.908;2023-09-12T06:04:00;19.40;99.90
21163;DHT22;10739;52.198;20.908;2023-09-12T06:06:26;19.50;99.90
21163;DHT22;10739;52.198;20.908;2023-09-12T06:08:53;19.60;99.90
21163;DHT22;10739;52.198;20.908;2023-09-12T06:11:19;19.70;99.90
21163;DHT22;10739;52.198;20.908;2023-09-12T06:13:45;19.90;99.90
21163;DHT22;10739;52.198;20.908;2023-09-12T06:16:11;20.00;99.90
21163;DHT22;10739;52.198;20.908;2023-09-12T06:18:37;20.10;99.90
21163;DHT22;10739;52.198;20.908;2023-09-12T06:21:04;20.20;99.90
21163;DHT22;10739;52.198;20.908;2023-09-12T06:23:34;20.40;99.90
21163;DHT22;10739;52.198;20.908;2023-09-12T06:26:00;20.50;99.90
21163;DHT22;10739;52.198;20.908;2023-09-12T06:28:28;20.70;99.90
21163;DHT22;10739;52.198;20.908;2023-09-12T06:30:56;20.80;99.90
21163;DHT22;10739;52.198;20.908;2023-09-12T06:33:24;21.10;99.90
21163;DHT22;10739;52.198;20.908;2023-09-12T06:35:53;21.30;99.90
21163;DHT22;10739;52.198;20.908;2023-09-12T06:38:20;21.40;99.90
21163;DHT22;10739;52.198;20.908;2023-09-12T06:40:48;21.60;99.90
21163;DHT22;10739;52.198;20.908;2023-09-12T06:43:14;21.70;99.90
21163;DHT22;10739;52.198;20.908;2023-09-12T06:45:41;21.80;99.90
21163;DHT22;10739;52.198;20.908;2023-09-12T06:48:07;22.10;99.90
21163;DHT22;10739;52.198;20.908;2023-09-12T06:50:33;22.20;99.90
21163;DHT22;10739;52.198;20.908;2023-09-12T06:52:59;22.40;99.90
21163;DHT22;10739;52.198;20.908;2023-09-12T06:55:27;23.10;99.90
21163;DHT22;10739;52.198;20.908;2023-09-12T06:57:53;24.10;99.90
21163;DHT22;10739;52.198;20.908;2023-09-12T07:00:19;25.00;99.90
21163;DHT22;10739;52.198;20.908;2023-09-12T07:02:46;25.80;99.90
21163;DHT22;10739;52.198;20.908;2023-09-12T07:05:12;26.60;99.90
21163;DHT22;10739;52.198;20.908;2023-09-12T07:07:38;27.10;99.90
21163;DHT22;10739;52.198;20.908;2023-09-12T07:10:04;27.40;99.90
21163;DHT22;10739;52.198;20.908;2023-09-12T07:12:31;27.50;99.90
21163;DHT22;10739;52.198;20.908;2023-09-12T07:14:58;27.30;99.90
21163;DHT22;10739;52.198;20.908;2023-09-12T07:17:27;27.20;99.90
21163;DHT22;10739;52.198;20.908;2023-09-12T07:19:54;26.10;99.90
21163;DHT22;10739;52.198;20.908;2023-09-12T07:22:20;26.20;99.90
21163;DHT22;10739;52.198;20.908;2023-09-12T07:24:46;26.20;99.90
21163;DHT22;10739;52.198;20.908;2023-09-12T07:27:12;26.40;99.90
21163;DHT22;10739;52.198;20.908;2023-09-12T07:29:38;26.30;99.90
21163;DHT22;10739;52.198;20.908;2023-09-12T07:32:05;26.30;99.90
21163;DHT22;10739;52.198;20.908;2023-09-12T07:34:31;26.30;99.90
21163;DHT22;10739;52.198;20.908;2023-09-12T07:36:57;26.20;99.90
21163;DHT22;10739;52.198;20.908;2023-09-12T07:39:23;26.30;99.90
21163;DHT22;10739;52.198;20.908;2023-09-12T07:41:49;26.40;99.90
21163;DHT22;10739;52.198;20.908;2023-09-12T07:44:15;26.50;99.90
21163;DHT22;10739;52.198;20.908;2023-09-12T07:46:43;26.50;99.90
21163;DHT22;10739;52.198;20.908;2023-09-12T07:49:09;26.50;99.90
21163;DHT22;10739;52.198;20.908;2023-09-12T07:51:36;26.60;99.90
21163;DHT22;10739;52.198;20.908;2023-09-12T07:54:02;26.70;99.90
21163;DHT22;10739;52.198;20.908;2023-09-12T07:56:28;26.70;99.90
21163;DHT22;10739;52.198;20.908;2023-09-12T07:58:57;26.90;99.90
21163;DHT22;10739;52.198;20.908;2023-09-12T08:01:23;27.10;99.90
21163;DHT22;10739;52.198;20.908;2023-09-12T08:03:49;27.20;99.90
21163;DHT22;10739;52.198;20.908;2023-09-12T08:06:16;27.20;99.90
21163;DHT22;10739;52.198;20.908;2023-09-12T08:08:42;27.30;99.90
21163;DHT22;10739;52.198;20.908;2023-09-12T08:11:09;27.40;99.90
21163;DHT22;10739;52.198;20.908;2023-09-12T08:13:35;27.40;99.70
21163;DHT22;10739;52.198;20.908;2023-09-12T08:16:01;27.40;99.60
21163;DHT22;10739;52.198;20.908;2023-09-12T08:18:29;27.60;99.90
21163;DHT22;10739;52.198;20.908;2023-09-12T08:20:57;27.90;99.90
21163;DHT22;10739;52.198;20.908;2023-09-12T08:23:23;28.40;99.00
21163;DHT22;10739;52.198;20.908;2023-09-12T08:25:49;29.00;99.00
21163;DHT22;10739;52.198;20.908;2023-09-12T08:28:15;29.40;97.50
21163;DHT22;10739;52.198;20.908;2023-09-12T08:30:44;30.10;96.70
21163;DHT22;10739;52.198;20.908;2023-09-12T08:33:12;30.80;96.00
21163;DHT22;10739;52.198;20.908;2023-09-12T08:35:38;30.90;95.00
21163;DHT22;10739;52.198;20.908;2023-09-12T08:38:04;31.40;94.20
21163;DHT22;10739;52.198;20.908;2023-09-12T08:40:32;32.00;93.30
21163;DHT22;10739;52.198;20.908;2023-09-12T08:43:01;32.20;93.40
21163;DHT22;10739;52.198;20.908;2023-09-12T08:45:30;32.10;92.00
21163;DHT22;10739;52.198;20.908;2023-09-12T08:47:59;32.10;91.40
21163;DHT22;10739;52.198;20.908;2023-09-12T08:50:28;31.90;91.10
21163;DHT22;10739;52.198;20.908;2023-09-12T08:53:00;32.00;90.10
21163;DHT22;10739;52.198;20.908;2023-09-12T08:55:26;32.30;88.60
21163;DHT22;10739;52.198;20.908;2023-09-12T08:57:53;31.60;89.00
21163;DHT22;10739;52.198;20.908;2023-09-12T09:00:22;31.70;89.60
21163;DHT22;10739;52.198;20.908;2023-09-12T09:02:50;32.00;90.00
21163;DHT22;10739;52.198;20.908;2023-09-12T09:05:17;32.30;89.80
21163;DHT22;10739;52.198;20.908;2023-09-12T09:07:46;32.50;87.80
21163;DHT22;10739;52.198;20.908;2023-09-12T09:10:16;32.90;87.10
21163;DHT22;10739;52.198;20.908;2023-09-12T09:12:44;33.20;86.50
21163;DHT22;10739;52.198;20.908;2023-09-12T09:15:27;33.30;86.10
21163;DHT22;10739;52.198;20.908;2023-09-12T09:17:56;33.70;84.80
21163;DHT22;10739;52.198;20.908;2023-09-12T09:20:32;33.30;82.70
21163;DHT22;10739;52.198;20.908;2023-09-12T09:23:08;33.30;82.20
21163;DHT22;10739;52.198;20.908;2023-09-12T09:25:36;33.00;82.70
21163;DHT22;10739;52.198;20.908;2023-09-12T09:28:18;32.90;82.20
21163;DHT22;10739;52.198;20.908;2023-09-12T09:30:49;32.20;83.90
21163;DHT22;10739;52.198;20.908;2023-09-12T09:33:20;32.70;83.00
21163;DHT22;10739;52.198;20.908;2023-09-12T09:35:47;32.20;83.90
21163;DHT22;10739;52.198;20.908;2023-09-12T09:38:15;32.10;83.00
21163;DHT22;10739;52.198;20.908;2023-09-12T09:40:45;33.00;82.80
21163;DHT22;10739;52.198;20.908;2023-09-12T09:43:11;33.40;79.20
21163;DHT22;10739;52.198;20.908;2023-09-12T09:45:44;33.80;78.00
21163;DHT22;10739;52.198;20.908;2023-09-12T09:48:20;34.30;77.90
21163;DHT22;10739;52.198;20.908;2023-09-12T09:50:49;34.20;74.00
21163;DHT22;10739;52.198;20.908;2023-09-12T09:53:26;34.10;72.30
21163;DHT22;10739;52.198;20.908;2023-09-12T09:56:11;32.90;73.60
21163;DHT22;10739;52.198;20.908;2023-09-12T10:01:18;34.00;72.50
21163;DHT22;10739;52.198;20.908;2023-09-12T10:03:49;34.30;70.40
21163;DHT22;10739;52.198;20.908;2023-09-12T10:06:17;34.40;69.70
21163;DHT22;10739;52.198;20.908;2023-09-12T10:08:49;34.40;68.80
21163;DHT22;10739;52.198;20.908;2023-09-12T10:11:18;33.90;69.90
21163;DHT22;10739;52.198;20.908;2023-09-12T10:14:00;33.60;69.30
21163;DHT22;10739;52.198;20.908;2023-09-12T10:16:31;34.00;69.80
21163;DHT22;10739;52.198;20.908;2023-09-12T10:19:24;33.70;69.00
21163;DHT22;10739;52.198;20.908;2023-09-12T10:22:25;33.20;70.40
21163;DHT22;10739;52.198;20.908;2023-09-12T10:24:59;32.60;70.70
21163;DHT22;10739;52.198;20.908;2023-09-12T10:27:27;31.50;70.20
21163;DHT22;10739;52.198;20.908;2023-09-12T10:29:55;31.10;72.40
21163;DHT22;10739;52.198;20.908;2023-09-12T10:32:25;31.20;72.40
21163;DHT22;10739;52.198;20.908;2023-09-12T10:34:58;31.20;73.40
21163;DHT22;10739;52.198;20.908;2023-09-12T10:37:26;31.60;73.00
21163;DHT22;10739;52.198;20.908;2023-09-12T10:39:56;31.60;71.50
21163;DHT22;10739;52.198;20.908;2023-09-12T10:42:24;31.50;73.20
21163;DHT22;10739;52.198;20.908;2023-09-12T10:44:54;31.40;73.10
21163;DHT22;10739;52.198;20.908;2023-09-12T10:47:22;31.20;73.00
21163;DHT22;10739;52.198;20.908;2023-09-12T10:49:49;30.40;72.50
21163;DHT22;10739;52.198;20.908;2023-09-12T10:52:26;29.70;74.00
21163;DHT22;10739;52.198;20.908;2023-09-12T10:54:53;29.50;75.30
21163;DHT22;10739;52.198;20.908;2023-09-12T10:57:21;29.50;75.00
21163;DHT22;10739;52.198;20.908;2023-09-12T11:02:42;29.00;76.80
21163;DHT22;10739;52.198;20.908;2023-09-12T11:08:00;29.00;75.50
21163;DHT22;10739;52.198;20.908;2023-09-12T11:10:28;29.10;76.30
21163;DHT22;10739;52.198;20.908;2023-09-12T11:12:57;29.20;76.10
21163;DHT22;10739;52.198;20.908;2023-09-12T11:15:25;29.30;77.40
21163;DHT22;10739;52.198;20.908;2023-09-12T11:18:03;29.30;75.30
21163;DHT22;10739;52.198;20.908;2023-09-12T11:20:52;29.10;75.00
21163;DHT22;10739;52.198;20.908;2023-09-12T11:23:25;29.10;77.70
21163;DHT22;10739;52.198;20.908;2023-09-12T11:26:09;29.20;76.30
21163;DHT22;10739;52.198;20.908;2023-09-12T11:28:37;29.30;76.00
21163;DHT22;10739;52.198;20.908;2023-09-12T11:31:04;29.40;77.70
21163;DHT22;10739;52.198;20.908;2023-09-12T11:33:32;29.60;75.90
21163;DHT22;10739;52.198;20.908;2023-09-12T11:35:58;29.50;75.30
21163;DHT22;10739;52.198;20.908;2023-09-12T11:38:31;29.50;76.10
21163;DHT22;10739;52.198;20.908;2023-09-12T11:41:00;29.40;76.30
21163;DHT22;10739;52.198;20.908;2023-09-12T11:43:28;29.20;75.10
21163;DHT22;10739;52.198;20.908;2023-09-12T11:45:56;29.30;74.60
21163;DHT22;10739;52.198;20.908;2023-09-12T11:48:22;29.40;75.20
21163;DHT22;10739;52.198;20.908;2023-09-12T11:50:51;29.30;75.80
21163;DHT22;10739;52.198;20.908;2023-09-12T11:53:26;29.30;76.30
21163;DHT22;10739;52.198;20.908;2023-09-12T11:56:00;29.20;75.80
21163;DHT22;10739;52.198;20.908;2023-09-12T11:58:27;29.10;75.50
21163;DHT22;10739;52.198;20.908;2023-09-12T12:00:55;29.00;76.40
21163;DHT22;10739;52.198;20.908;2023-09-12T12:03:25;29.00;76.50
21163;DHT22;10739;52.198;20.908;2023-09-12T12:05:52;29.00;76.50
21163;DHT22;10739;52.198;20.908;2023-09-12T12:08:20;29.10;77.70
21163;DHT22;10739;52.198;20.908;2023-09-12T12:10:51;29.20;76.50
21163;DHT22;10739;52.198;20.908;2023-09-12T12:13:21;29.30;77.20
21163;DHT22;10739;52.198;20.908;2023-09-12T12:15:48;29.40;76.60
21163;DHT22;10739;52.198;20.908;2023-09-12T12:18:15;29.30;76.30
21163;DHT22;10739;52.198;20.908;2023-09-12T12:20:42;29.30;76.90
21163;DHT22;10739;52.198;20.908;2023-09-12T12:23:08;29.20;76.00
21163;DHT22;10739;52.198;20.908;2023-09-12T12:25:35;29.30;76.70
21163;DHT22;10739;52.198;20.908;2023-09-12T12:28:02;29.40;76.50
21163;DHT22;10739;52.198;20.908;2023-09-12T12:30:34;29.30;75.50
21163;DHT22;10739;52.198;20.908;2023-09-12T12:33:06;29.30;75.50
21163;DHT22;10739;52.198;20.908;2023-09-12T12:35:33;29.20;75.90
21163;DHT22;10739;52.198;20.908;2023-09-12T12:37:59;29.20;77.00
21163;DHT22;10739;52.198;20.908;2023-09-12T12:40:27;29.20;76.30
21163;DHT22;10739;52.198;20.908;2023-09-12T12:42:53;29.10;76.00
21163;DHT22;10739;52.198;20.908;2023-09-12T12:45:21;29.20;76.70
21163;DHT22;10739;52.198;20.908;2023-09-12T12:47:58;29.20;75.50
21163;DHT22;10739;52.198;20.908;2023-09-12T12:50:27;29.00;76.60
21163;DHT22;10739;52.198;20.908;2023-09-12T12:52:53;28.90;76.40
21163;DHT22;10739;52.198;20.908;2023-09-12T12:55:20;29.00;75.50
21163;DHT22;10739;52.198;20.908;2023-09-12T12:57:53;29.10;77.20
21163;DHT22;10739;52.198;20.908;2023-09-12T13:00:20;29.10;77.00
21163;DHT22;10739;52.198;20.908;2023-09-12T13:02:47;29.20;78.30
21163;DHT22;10739;52.198;20.908;2023-09-12T13:07:54;29.30;77.70
21163;DHT22;10739;52.198;20.908;2023-09-12T13:10:22;29.40;76.00
21163;DHT22;10739;52.198;20.908;2023-09-12T13:12:49;29.40;76.20
21163;DHT22;10739;52.198;20.908;2023-09-12T13:15:16;29.50;75.10
21163;DHT22;10739;52.198;20.908;2023-09-12T13:17:43;29.50;76.30
21163;DHT22;10739;52.198;20.908;2023-09-12T13:20:10;29.50;76.30
21163;DHT22;10739;52.198;20.908;2023-09-12T13:22:37;29.50;75.60
21163;DHT22;10739;52.198;20.908;2023-09-12T13:25:05;29.40;75.50
21163;DHT22;10739;52.198;20.908;2023-09-12T13:27:31;29.50;76.10
21163;DHT22;10739;52.198;20.908;2023-09-12T13:29:59;29.50;75.20
21163;DHT22;10739;52.198;20.908;2023-09-12T13:32:25;29.40;75.20
21163;DHT22;10739;52.198;20.908;2023-09-12T13:34:52;29.40;74.90
21163;DHT22;10739;52.198;20.908;2023-09-12T13:37:18;29.50;76.30
21163;DHT22;10739;52.198;20.908;2023-09-12T13:39:45;29.50;77.80
21163;DHT22;10739;52.198;20.908;2023-09-12T13:42:15;29.80;76.30
21163;DHT22;10739;52.198;20.908;2023-09-12T13:44:49;30.30;74.50
21163;DHT22;10739;52.198;20.908;2023-09-12T13:47:16;30.90;74.60
21163;DHT22;10739;52.198;20.908;2023-09-12T13:49:49;31.50;72.30
21163;DHT22;10739;52.198;20.908;2023-09-12T13:52:21;32.00;73.50
21163;DHT22;10739;52.198;20.908;2023-09-12T13:54:48;32.40;72.30
21163;DHT22;10739;52.198;20.908;2023-09-12T13:57:16;32.90;71.10
21163;DHT22;10739;52.198;20.908;2023-09-12T13:59:43;32.70;70.50
21163;DHT22;10739;52.198;20.908;2023-09-12T14:02:09;32.40;71.10
21163;DHT22;10739;52.198;20.908;2023-09-12T14:04:35;32.60;69.80
21163;DHT22;10739;52.198;20.908;2023-09-12T14:07:01;33.20;69.50
21163;DHT22;10739;52.198;20.908;2023-09-12T14:09:28;33.50;69.10
21163;DHT22;10739;52.198;20.908;2023-09-12T14:11:54;33.70;68.20
21163;DHT22;10739;52.198;20.908;2023-09-12T14:14:20;33.70;67.50
21163;DHT22;10739;52.198;20.908;2023-09-12T14:16:46;33.80;67.60
21163;DHT22;10739;52.198;20.908;2023-09-12T14:19:13;34.00;68.60
21163;DHT22;10739;52.198;20.908;2023-09-12T14:21:39;34.10;66.30
21163;DHT22;10739;52.198;20.908;2023-09-12T14:24:05;33.90;65.60
21163;DHT22;10739;52.198;20.908;2023-09-12T14:26:32;33.70;65.80
21163;DHT22;10739;52.198;20.908;2023-09-12T14:28:58;33.60;66.70
21163;DHT22;10739;52.198;20.908;2023-09-12T14:31:24;33.40;66.60
21163;DHT22;10739;52.198;20.908;2023-09-12T14:33:50;32.60;67.30
21163;DHT22;10739;52.198;20.908;2023-09-12T14:36:18;32.40;68.70
21163;DHT22;10739;52.198;20.908;2023-09-12T14:38:45;31.60;68.80
21163;DHT22;10739;52.198;20.908;2023-09-12T14:41:12;31.30;71.00
21163;DHT22;10739;52.198;20.908;2023-09-12T14:43:39;30.90;70.50
21163;DHT22;10739;52.198;20.908;2023-09-12T14:46:05;30.70;72.10
21163;DHT22;10739;52.198;20.908;2023-09-12T14:48:34;30.70;70.50
21163;DHT22;10739;52.198;20.908;2023-09-12T14:51:02;30.50;71.00
21163;DHT22;10739;52.198;20.908;2023-09-12T14:53:29;30.10;71.10
21163;DHT22;10739;52.198;20.908;2023-09-12T14:55:55;29.90;71.80
21163;DHT22;10739;52.198;20.908;2023-09-12T14:58:21;29.80;72.30
21163;DHT22;10739;52.198;20.908;2023-09-12T15:00:47;29.80;72.40
21163;DHT22;10739;52.198;20.908;2023-09-12T15:03:13;29.60;73.30
21163;DHT22;10739;52.198;20.908;2023-09-12T15:05:39;29.50;74.10
21163;DHT22;10739;52.198;20.908;2023-09-12T15:08:05;29.40;73.50
21163;DHT22;10739;52.198;20.908;2023-09-12T15:10:32;29.40;74.10
21163;DHT22;10739;52.198;20.908;2023-09-12T15:12:58;29.30;74.00
21163;DHT22;10739;52.198;20.908;2023-09-12T15:15:24;29.40;73.70
21163;DHT22;10739;52.198;20.908;2023-09-12T15:17:50;29.30;73.40
21163;DHT22;10739;52.198;20.908;2023-09-12T15:20:16;29.20;75.00
21163;DHT22;10739;52.198;20.908;2023-09-12T15:22:42;29.10;73.80
21163;DHT22;10739;52.198;20.908;2023-09-12T15:25:09;28.90;73.80
21163;DHT22;10739;52.198;20.908;2023-09-12T15:27:35;28.90;74.70
21163;DHT22;10739;52.198;20.908;2023-09-12T15:30:02;28.90;75.90
21163;DHT22;10739;52.198;20.908;2023-09-12T15:32:30;28.90;74.80
21163;DHT22;10739;52.198;20.908;2023-09-12T15:34:56;28.80;75.70
21163;DHT22;10739;52.198;20.908;2023-09-12T15:37:24;28.70;75.10